Terminal Aerodrome Forecast
Issued by NWS Sioux Falls, SD

Home | Current Version | Previous Version | Graphics & Text | Print | Product List | Glossary Off
Versions: 1 2 3 4 5 6 7 8 9 10 11 12 13 14 15 16

000
FTUS43 KFSD 191735
TAFHON
TAF
KHON 191735Z 1918/2018 36017G25KT 6SM -SN SCT010 OVC060
     FM191900 01012G22KT 3SM -SN BKN010 OVC025
     FM200500 35010G18KT 1SM -SN BKN008 OVC015=

USA.gov is the U.S. government's official web portal to all federal, state and local government web resources and services.